Time;durP1;ratioP1;P1;durP2;ratioP2;P2;SDS_P1;SDS_P2;PMS_P1;PMS_P2;Temp;Humidity;BMP_temperature;BMP_pressure;BME280_temperature;BME280_humidity;BME280_pressure;Samples;Min_cycle;Max_cycle;Signal;HPM_P1;HPM_P2
2023/07/31 00:02:23;;;;;;;5.57;2.38;;;16.50;99.90;;;;;;6270561;22;20417;-77
2023/07/31 00:04:49;;;;;;;3.08;1.80;;;16.50;99.90;;;;;;6271751;22;20031;-77
2023/07/31 00:07:15;;;;;;;3.47;1.95;;;16.50;99.90;;;;;;6270139;22;20066;-77
2023/07/31 00:09:40;;;;;;;4.22;1.70;;;16.50;99.90;;;;;;6270479;22;20103;-78
2023/07/31 00:12:07;;;;;;;3.45;2.10;;;16.50;99.90;;;;;;6270225;22;20024;-77
2023/07/31 00:14:32;;;;;;;3.55;1.88;;;16.60;99.90;;;;;;6270214;22;20148;-78
2023/07/31 00:16:58;;;;;;;7.57;2.47;;;16.50;99.90;;;;;;6270357;22;20398;-79
2023/07/31 00:19:24;;;;;;;3.35;1.77;;;16.50;99.90;;;;;;6269632;22;20095;-78
2023/07/31 00:21:49;;;;;;;2.97;1.98;;;16.50;99.90;;;;;;6270135;22;20434;-77
2023/07/31 00:24:15;;;;;;;2.35;1.73;;;16.50;99.90;;;;;;6272166;22;20019;-78
2023/07/31 00:26:40;;;;;;;2.25;1.83;;;16.50;99.90;;;;;;6271852;22;20055;-77
2023/07/31 00:29:06;;;;;;;4.28;2.05;;;16.50;99.90;;;;;;6269490;22;20602;-78
2023/07/31 00:31:32;;;;;;;3.53;1.63;;;16.50;99.90;;;;;;6272297;22;20008;-77
2023/07/31 00:33:57;;;;;;;2.42;1.60;;;16.50;99.90;;;;;;6271553;22;20027;-78
2023/07/31 00:36:23;;;;;;;2.25;1.75;;;16.40;99.90;;;;;;6272132;22;20027;-78
2023/07/31 00:38:49;;;;;;;3.88;1.80;;;16.40;99.90;;;;;;6271673;22;20102;-77
2023/07/31 00:41:15;;;;;;;2.90;1.70;;;16.40;99.90;;;;;;6271831;22;20054;-77
2023/07/31 00:43:40;;;;;;;2.65;1.75;;;16.40;99.90;;;;;;6272121;22;20370;-78
2023/07/31 00:46:07;;;;;;;1.85;1.30;;;16.40;99.90;;;;;;6243945;22;20023;-76
2023/07/31 00:48:34;;;;;;;3.75;2.20;;;16.40;99.90;;;;;;6243861;22;20020;-76
2023/07/31 00:51:01;;;;;;;4.25;1.88;;;16.40;99.90;;;;;;6271619;22;20712;-77
2023/07/31 00:53:27;;;;;;;2.60;1.98;;;16.30;99.90;;;;;;6271634;22;20077;-77
2023/07/31 00:55:53;;;;;;;2.35;1.60;;;16.30;99.90;;;;;;6243960;22;20103;-75
2023/07/31 00:58:19;;;;;;;1.95;1.58;;;16.30;99.90;;;;;;6244132;22;20027;-76
2023/07/31 01:00:45;;;;;;;2.47;1.90;;;16.30;99.90;;;;;;6270664;22;20530;-75
2023/07/31 01:03:11;;;;;;;2.78;1.88;;;16.40;99.90;;;;;;6243190;22;20035;-74
2023/07/31 01:05:49;;;;;;;2.83;1.80;;;16.30;99.90;;;;;;6243997;22;20021;-73
2023/07/31 01:08:29;;;;;;;3.40;1.67;;;16.30;99.90;;;;;;6243428;22;20034;-73
2023/07/31 01:11:14;;;;;;;1.92;1.60;;;16.30;99.90;;;;;;6243154;22;20057;-73
2023/07/31 01:13:40;;;;;;;2.53;1.77;;;16.20;99.90;;;;;;6270256;22;20020;-74
2023/07/31 01:16:06;;;;;;;2.67;1.20;;;16.20;99.90;;;;;;6270860;22;20053;-75
2023/07/31 01:18:32;;;;;;;1.70;1.50;;;16.20;99.90;;;;;;6242905;22;20016;-74
2023/07/31 01:21:12;;;;;;;5.28;1.70;;;16.20;99.90;;;;;;6243324;22;20100;-73
2023/07/31 01:23:52;;;;;;;2.28;1.20;;;16.20;99.90;;;;;;6242957;22;20024;-73
2023/07/31 01:26:29;;;;;;;5.78;1.67;;;16.20;99.90;;;;;;6242793;22;20124;-73
2023/07/31 01:29:13;;;;;;;2.38;1.58;;;16.10;99.90;;;;;;6242533;22;20022;-74
2023/07/31 01:31:41;;;;;;;2.90;1.38;;;16.10;99.90;;;;;;6242933;22;20035;-76
2023/07/31 01:34:09;;;;;;;1.35;1.20;;;16.10;99.90;;;;;;6270314;22;20405;-74
2023/07/31 01:36:35;;;;;;;1.25;1.10;;;16.20;99.90;;;;;;6242683;22;20470;-75
2023/07/31 01:39:02;;;;;;;1.27;1.10;;;16.20;99.90;;;;;;6271113;22;20015;-76
2023/07/31 01:41:28;;;;;;;1.60;1.10;;;16.20;99.90;;;;;;6243420;22;20812;-75
2023/07/31 01:43:53;;;;;;;2.50;1.38;;;16.20;99.90;;;;;;6243258;22;20020;-75
2023/07/31 01:46:19;;;;;;;1.40;1.17;;;16.20;99.90;;;;;;6243220;22;20024;-75
2023/07/31 01:48:45;;;;;;;1.10;1.00;;;16.20;99.90;;;;;;6270850;22;20094;-74
2023/07/31 01:51:10;;;;;;;2.05;1.30;;;16.20;99.90;;;;;;6271271;22;20019;-75
2023/07/31 01:53:36;;;;;;;1.23;0.90;;;16.10;99.90;;;;;;6243466;22;20028;-76
2023/07/31 01:56:02;;;;;;;1.85;1.00;;;16.10;99.90;;;;;;6271127;22;20059;-75
2023/07/31 01:58:27;;;;;;;1.58;1.00;;;16.20;99.90;;;;;;6271328;22;20059;-76
2023/07/31 02:00:53;;;;;;;1.48;0.98;;;16.10;99.90;;;;;;6243240;22;20024;-75
2023/07/31 02:03:19;;;;;;;1.20;0.82;;;16.10;99.90;;;;;;6243446;22;20023;-75
2023/07/31 02:05:48;;;;;;;1.73;0.88;;;16.20;99.90;;;;;;6243185;22;20031;-75
2023/07/31 02:08:15;;;;;;;1.45;1.08;;;16.10;99.90;;;;;;6243053;22;20332;-74
2023/07/31 02:10:41;;;;;;;1.67;1.15;;;16.20;99.90;;;;;;6217811;22;20058;-74
2023/07/31 02:13:06;;;;;;;1.20;0.90;;;16.20;99.90;;;;;;6244695;22;20024;-75
2023/07/31 02:15:32;;;;;;;0.98;0.93;;;16.20;99.90;;;;;;6272299;22;20123;-76
2023/07/31 02:17:58;;;;;;;1.90;1.10;;;16.20;99.90;;;;;;6244802;22;20016;-72
2023/07/31 02:20:24;;;;;;;1.58;1.00;;;16.20;99.90;;;;;;6219299;22;20019;-72
2023/07/31 02:22:50;;;;;;;1.10;0.98;;;16.20;99.90;;;;;;6271962;22;20023;-72
2023/07/31 02:25:16;;;;;;;1.08;0.98;;;16.20;99.90;;;;;;6271896;22;20024;-74
2023/07/31 02:27:41;;;;;;;1.10;0.90;;;16.20;99.90;;;;;;6244875;22;20059;-74
2023/07/31 02:30:08;;;;;;;2.20;0.82;;;16.20;99.90;;;;;;6244554;22;20066;-75
2023/07/31 02:32:33;;;;;;;1.67;0.98;;;16.20;99.90;;;;;;6244945;22;20102;-76
2023/07/31 02:34:59;;;;;;;0.88;0.88;;;16.20;99.90;;;;;;6245854;22;20074;-77
2023/07/31 02:37:25;;;;;;;1.52;0.80;;;16.20;99.90;;;;;;6245683;22;20051;-77
2023/07/31 02:39:51;;;;;;;1.88;0.90;;;16.20;99.90;;;;;;6245332;22;20666;-77
2023/07/31 02:42:17;;;;;;;1.73;1.20;;;16.20;99.90;;;;;;6244863;22;20019;-77
2023/07/31 02:44:42;;;;;;;1.05;0.80;;;16.20;99.90;;;;;;6272439;22;20027;-77
2023/07/31 02:47:08;;;;;;;1.27;1.17;;;16.30;99.90;;;;;;6245161;22;20070;-78
2023/07/31 02:49:34;;;;;;;1.17;1.00;;;16.30;99.90;;;;;;6219757;22;20073;-77
2023/07/31 02:52:00;;;;;;;1.63;1.25;;;16.30;99.90;;;;;;6245167;22;20054;-78
2023/07/31 02:54:25;;;;;;;1.42;1.20;;;16.30;99.90;;;;;;6245248;22;20090;-78
2023/07/31 02:56:51;;;;;;;3.55;1.20;;;16.30;99.90;;;;;;6272429;22;20019;-77
2023/07/31 02:59:18;;;;;;;1.48;1.20;;;16.40;99.90;;;;;;6244848;22;20030;-78
2023/07/31 03:01:43;;;;;;;1.80;1.20;;;16.30;99.90;;;;;;6244818;22;20023;-77
2023/07/31 03:04:09;;;;;;;1.10;1.00;;;16.30;99.90;;;;;;6245314;22;20027;-79
2023/07/31 03:06:35;;;;;;;2.25;1.15;;;16.30;99.90;;;;;;6244883;22;20043;-78
2023/07/31 03:09:00;;;;;;;2.70;1.20;;;16.30;99.90;;;;;;6245117;22;20047;-78
2023/07/31 03:11:26;;;;;;;1.58;1.20;;;16.40;99.90;;;;;;6272496;22;20027;-79
2023/07/31 03:13:52;;;;;;;2.00;1.30;;;16.40;99.90;;;;;;6244839;22;20023;-78
2023/07/31 03:16:18;;;;;;;1.40;1.30;;;16.40;99.90;;;;;;6272516;22;20058;-78
2023/07/31 03:18:43;;;;;;;1.80;1.00;;;16.30;99.90;;;;;;6244647;22;20031;-78
2023/07/31 03:21:09;;;;;;;1.95;1.70;;;16.40;99.90;;;;;;6245119;22;20031;-78
2023/07/31 03:23:35;;;;;;;1.50;1.23;;;16.30;99.90;;;;;;6244314;22;20035;-78
2023/07/31 03:26:05;;;;;;;2.90;1.30;;;16.30;99.90;;;;;;6245035;22;20095;-78
2023/07/31 03:28:31;;;;;;;1.67;1.10;;;16.30;99.90;;;;;;6272528;22;20020;-78
2023/07/31 03:30:56;;;;;;;2.10;1.15;;;16.30;99.90;;;;;;6271873;22;20030;-77
2023/07/31 03:33:22;;;;;;;2.00;1.10;;;16.40;99.90;;;;;;6243954;22;20118;-74
2023/07/31 03:35:48;;;;;;;0.88;0.88;;;16.30;99.90;;;;;;6244148;22;20106;-73
2023/07/31 03:38:14;;;;;;;2.20;1.17;;;16.30;99.90;;;;;;6271751;22;20019;-73
2023/07/31 03:40:40;;;;;;;1.48;1.00;;;16.30;99.90;;;;;;6244151;22;20016;-72
2023/07/31 03:43:05;;;;;;;1.63;1.10;;;16.30;99.90;;;;;;6243612;22;20422;-73
2023/07/31 03:45:31;;;;;;;2.65;1.20;;;16.30;99.90;;;;;;6271448;22;20030;-74
2023/07/31 03:47:57;;;;;;;1.10;0.90;;;16.40;99.90;;;;;;6271314;22;20035;-76
2023/07/31 03:50:24;;;;;;;1.40;1.10;;;16.40;99.90;;;;;;6271912;22;20059;-76
2023/07/31 03:52:50;;;;;;;1.77;1.00;;;16.40;99.90;;;;;;6244237;22;20028;-77
2023/07/31 03:55:16;;;;;;;5.53;1.33;;;16.40;99.90;;;;;;6244201;22;20107;-77
2023/07/31 03:57:42;;;;;;;1.20;1.00;;;16.40;99.90;;;;;;6244016;22;20044;-76
2023/07/31 04:00:08;;;;;;;2.45;1.08;;;16.40;99.90;;;;;;6244367;22;20077;-77
2023/07/31 04:02:33;;;;;;;2.25;1.20;;;16.40;99.90;;;;;;6244506;22;20034;-77
2023/07/31 04:04:59;;;;;;;1.83;1.17;;;16.50;99.90;;;;;;6271949;22;20020;-77
2023/07/31 04:07:25;;;;;;;1.73;1.13;;;16.50;99.90;;;;;;6244483;22;20026;-78
2023/07/31 04:09:50;;;;;;;1.70;0.90;;;16.40;99.90;;;;;;6244501;22;20085;-77
2023/07/31 04:12:16;;;;;;;1.80;1.20;;;16.40;99.90;;;;;;6244056;22;20110;-76
2023/07/31 04:14:42;;;;;;;1.77;0.88;;;16.40;99.90;;;;;;6243940;22;20126;-74
2023/07/31 04:17:07;;;;;;;1.10;0.93;;;16.40;99.90;;;;;;6243902;22;20011;-75
2023/07/31 04:19:33;;;;;;;1.13;1.00;;;16.40;99.90;;;;;;6243447;22;20456;-74
2023/07/31 04:21:59;;;;;;;2.05;1.15;;;16.50;99.90;;;;;;6243291;22;20057;-75
2023/07/31 04:24:24;;;;;;;2.17;1.20;;;16.50;99.90;;;;;;6243619;22;20170;-75
2023/07/31 04:26:51;;;;;;;1.17;0.80;;;16.60;99.90;;;;;;6243147;22;20038;-74
2023/07/31 04:29:17;;;;;;;2.08;1.20;;;16.60;99.90;;;;;;6270824;22;20020;-76
2023/07/31 04:31:43;;;;;;;1.48;1.17;;;16.50;99.90;;;;;;6243695;22;20435;-76
2023/07/31 04:34:08;;;;;;;1.23;0.80;;;16.50;99.90;;;;;;6243525;22;20027;-76
2023/07/31 04:36:34;;;;;;;1.08;0.98;;;16.50;99.90;;;;;;6243721;22;20047;-76
2023/07/31 04:39:00;;;;;;;1.63;1.20;;;16.50;99.90;;;;;;6271079;22;20355;-77
2023/07/31 04:41:26;;;;;;;1.95;1.33;;;16.60;99.90;;;;;;6270696;22;20135;-74
2023/07/31 04:43:52;;;;;;;4.03;1.10;;;16.60;99.90;;;;;;6243440;22;20376;-74
2023/07/31 04:46:18;;;;;;;2.63;1.17;;;16.50;99.90;;;;;;6243517;22;20447;-72
2023/07/31 04:48:43;;;;;;;3.00;1.58;;;16.60;99.90;;;;;;6271087;22;20024;-72
2023/07/31 04:51:09;;;;;;;3.42;1.65;;;16.60;99.90;;;;;;6270960;22;20092;-73
2023/07/31 04:53:35;;;;;;;3.17;1.80;;;16.60;99.90;;;;;;6243208;22;20015;-73
2023/07/31 04:56:01;;;;;;;5.22;1.88;;;16.60;99.90;;;;;;6243617;22;20470;-72
2023/07/31 04:58:27;;;;;;;7.82;2.85;;;16.60;99.90;;;;;;6243735;22;20015;-73
2023/07/31 05:00:53;;;;;;;7.78;3.50;;;16.60;99.90;;;;;;6243676;22;20030;-75
2023/07/31 05:03:19;;;;;;;8.88;3.78;;;16.60;99.90;;;;;;6243762;22;20448;-75
2023/07/31 05:05:44;;;;;;;10.30;4.03;;;16.60;99.90;;;;;;6243404;22;20020;-76
2023/07/31 05:08:10;;;;;;;8.60;3.88;;;16.70;99.90;;;;;;6243785;22;20043;-76
2023/07/31 05:10:36;;;;;;;13.75;4.43;;;16.70;99.90;;;;;;6270936;22;20024;-76
2023/07/31 05:13:01;;;;;;;10.38;4.45;;;16.70;99.90;;;;;;6244006;22;20093;-77
2023/07/31 05:15:28;;;;;;;13.93;4.65;;;16.70;99.90;;;;;;6243937;22;20050;-77
2023/07/31 05:17:53;;;;;;;14.90;4.70;;;16.70;99.90;;;;;;6244205;22;20019;-77
2023/07/31 05:20:19;;;;;;;14.02;5.35;;;16.80;99.90;;;;;;6244411;22;20027;-77
2023/07/31 05:22:45;;;;;;;23.75;5.63;;;16.70;99.90;;;;;;6244481;22;20026;-77
2023/07/31 05:25:11;;;;;;;15.15;5.50;;;16.80;99.90;;;;;;6271203;22;20072;-78
2023/07/31 05:27:36;;;;;;;14.50;4.88;;;16.80;99.90;;;;;;6244156;22;20089;-78
2023/07/31 05:30:04;;;;;;;15.23;4.80;;;16.80;99.90;;;;;;6271650;22;20109;-79
2023/07/31 05:32:30;;;;;;;16.30;5.05;;;16.80;99.90;;;;;;6244938;22;20026;-80
2023/07/31 05:34:56;;;;;;;19.10;5.57;;;16.80;99.90;;;;;;6244881;22;20398;-80
2023/07/31 05:37:21;;;;;;;17.25;5.93;;;16.80;99.90;;;;;;6272187;22;20015;-80
2023/07/31 05:39:47;;;;;;;19.75;6.35;;;16.80;99.90;;;;;;6244669;22;20047;-80
2023/07/31 05:42:13;;;;;;;22.00;7.45;;;16.80;99.90;;;;;;6245564;22;20043;-80
2023/07/31 05:44:38;;;;;;;20.83;6.53;;;16.80;99.90;;;;;;6245030;22;20034;-81
2023/07/31 05:47:04;;;;;;;26.25;6.32;;;16.90;99.90;;;;;;6273885;22;20016;-81
2023/07/31 05:49:30;;;;;;;23.08;6.35;;;16.90;99.90;;;;;;6246830;22;20078;-81
2023/07/31 05:51:56;;;;;;;20.67;6.15;;;16.90;99.90;;;;;;6246960;22;20031;-81
2023/07/31 05:54:22;;;;;;;20.25;6.38;;;16.90;99.90;;;;;;6246805;22;20600;-82
2023/07/31 05:56:47;;;;;;;26.83;7.20;;;16.80;99.90;;;;;;6246415;22;20027;-82
2023/07/31 05:59:13;;;;;;;15.82;5.97;;;16.80;99.90;;;;;;6274300;22;20035;-81
2023/07/31 06:01:39;;;;;;;24.23;7.15;;;16.90;99.90;;;;;;6246859;22;20207;-81
2023/07/31 06:04:05;;;;;;;25.60;7.25;;;16.90;99.90;;;;;;6246557;22;20077;-81
2023/07/31 06:06:31;;;;;;;27.00;7.22;;;16.90;99.90;;;;;;6246465;22;20058;-82
2023/07/31 06:08:57;;;;;;;17.70;6.65;;;16.90;99.90;;;;;;6274031;22;20083;-84
2023/07/31 06:11:23;;;;;;;21.17;7.13;;;16.90;99.90;;;;;;6273784;22;20022;-82
2023/07/31 06:13:49;;;;;;;24.10;6.78;;;16.90;99.90;;;;;;6246239;22;20024;-83
2023/07/31 06:16:15;;;;;;;25.08;7.03;;;16.90;99.90;;;;;;6246629;22;20089;-82
2023/07/31 06:18:41;;;;;;;19.38;7.18;;;16.90;99.90;;;;;;6246593;22;20074;-82
2023/07/31 06:21:08;;;;;;;18.95;7.13;;;16.80;99.90;;;;;;6246002;22;20027;-82
2023/07/31 06:23:34;;;;;;;20.88;6.60;;;16.90;99.90;;;;;;6246310;22;20019;-83
2023/07/31 06:25:59;;;;;;;22.08;7.20;;;16.90;99.90;;;;;;6251903;22;20087;-82
2023/07/31 06:28:29;;;;;;;22.67;7.55;;;16.90;99.90;;;;;;6253082;22;20016;-82
2023/07/31 06:30:55;;;;;;;23.50;8.02;;;16.90;99.90;;;;;;6275819;22;20051;-82
2023/07/31 06:33:21;;;;;;;26.67;8.07;;;16.90;99.90;;;;;;6280691;22;20345;-82
2023/07/31 06:35:46;;;;;;;22.70;7.88;;;16.90;99.90;;;;;;6278184;22;20020;-82
2023/07/31 06:38:12;;;;;;;22.10;7.88;;;16.90;99.90;;;;;;6281204;22;20026;-82
2023/07/31 06:40:38;;;;;;;30.05;8.07;;;16.90;99.90;;;;;;6278889;22;20075;-81
2023/07/31 06:43:07;;;;;;;19.75;7.20;;;16.90;99.90;;;;;;6280017;22;20073;-81
2023/07/31 06:45:37;;;;;;;18.35;7.35;;;16.90;99.90;;;;;;6271610;22;20550;-81
2023/07/31 06:48:03;;;;;;;20.00;7.63;;;16.90;99.90;;;;;;6271516;22;20447;-80
2023/07/31 06:50:30;;;;;;;18.55;7.60;;;16.90;99.90;;;;;;6271447;22;20019;-81
2023/07/31 06:52:56;;;;;;;21.90;7.88;;;16.80;99.90;;;;;;6273551;22;20015;-81
2023/07/31 06:55:22;;;;;;;20.70;7.05;;;16.90;99.90;;;;;;6271843;22;20019;-81
2023/07/31 06:57:49;;;;;;;23.80;7.43;;;16.80;99.90;;;;;;6271635;22;20160;-81
2023/07/31 07:00:16;;;;;;;23.30;7.57;;;16.80;99.90;;;;;;6272113;22;20015;-80
2023/07/31 07:02:41;;;;;;;17.98;7.32;;;16.80;99.90;;;;;;6246353;22;20016;-81
2023/07/31 07:05:08;;;;;;;20.88;6.50;;;16.90;99.90;;;;;;6273530;22;20020;-81
2023/07/31 07:07:34;;;;;;;13.88;6.05;;;16.90;99.90;;;;;;6273591;22;20108;-81
2023/07/31 07:10:00;;;;;;;14.88;6.35;;;16.90;99.90;;;;;;6271443;22;20020;-82
2023/07/31 07:12:29;;;;;;;17.58;6.60;;;16.80;99.90;;;;;;6271573;22;20260;-82
2023/07/31 07:14:54;;;;;;;13.82;5.60;;;16.80;99.90;;;;;;6271491;22;20051;-82
2023/07/31 07:17:20;;;;;;;13.60;5.13;;;16.80;99.90;;;;;;6271702;22;20042;-81
2023/07/31 07:19:48;;;;;;;12.18;5.00;;;16.80;99.90;;;;;;6273154;22;20177;-81
2023/07/31 07:22:14;;;;;;;15.00;5.95;;;16.80;99.90;;;;;;6271332;22;20031;-81
2023/07/31 07:24:39;;;;;;;11.07;4.43;;;16.80;99.90;;;;;;6271125;22;20023;-81
2023/07/31 07:27:05;;;;;;;12.70;5.05;;;16.90;99.90;;;;;;6271453;22;20032;-81
2023/07/31 07:29:31;;;;;;;10.00;4.22;;;16.90;99.90;;;;;;6271745;22;20481;-81
2023/07/31 07:31:57;;;;;;;12.50;5.53;;;16.90;99.90;;;;;;6271521;22;20012;-81
2023/07/31 07:34:26;;;;;;;11.70;4.97;;;16.90;99.90;;;;;;6271209;22;20062;-81
2023/07/31 07:36:51;;;;;;;12.10;5.25;;;16.90;99.90;;;;;;6271112;22;20026;-81
2023/07/31 07:39:17;;;;;;;12.57;4.65;;;16.90;99.90;;;;;;6271364;22;20091;-82
2023/07/31 07:41:43;;;;;;;11.50;4.10;;;16.90;99.90;;;;;;6272407;22;20015;-75
2023/07/31 07:44:08;;;;;;;10.02;4.63;;;16.90;99.90;;;;;;6269641;22;20093;-75
2023/07/31 07:46:34;;;;;;;11.05;3.90;;;16.90;99.90;;;;;;6269621;22;20027;-74
2023/07/31 07:49:00;;;;;;;10.70;4.25;;;16.90;99.90;;;;;;6270049;22;20027;-77
2023/07/31 07:51:26;;;;;;;7.63;3.90;;;16.90;99.90;;;;;;6270189;22;20023;-75
2023/07/31 07:53:51;;;;;;;8.88;3.97;;;16.90;99.90;;;;;;6272088;22;20031;-73
2023/07/31 07:56:17;;;;;;;8.35;4.53;;;16.90;99.90;;;;;;6271534;22;20110;-73
2023/07/31 07:58:43;;;;;;;7.57;3.75;;;16.90;99.90;;;;;;6271997;22;20049;-74
2023/07/31 08:01:08;;;;;;;10.05;4.28;;;17.00;99.90;;;;;;6270015;22;20034;-74
2023/07/31 08:03:34;;;;;;;9.15;4.28;;;17.00;99.90;;;;;;6267155;22;20364;-72
2023/07/31 08:06:01;;;;;;;11.27;4.18;;;17.00;99.90;;;;;;6270460;22;20019;-73
2023/07/31 08:08:28;;;;;;;7.57;3.85;;;17.10;99.90;;;;;;6268394;22;20026;-75
2023/07/31 08:10:54;;;;;;;9.05;3.90;;;17.10;99.90;;;;;;6271714;22;20671;-74
2023/07/31 08:13:20;;;;;;;7.25;3.92;;;17.00;99.90;;;;;;6271655;22;20026;-74
2023/07/31 08:15:46;;;;;;;6.93;3.90;;;17.00;99.90;;;;;;6270001;22;20016;-76
2023/07/31 08:18:12;;;;;;;6.57;3.72;;;17.00;99.90;;;;;;6271483;22;20103;-75
2023/07/31 08:20:37;;;;;;;7.22;3.75;;;17.00;99.90;;;;;;6271466;22;20019;-77
2023/07/31 08:23:04;;;;;;;7.63;3.70;;;17.10;99.90;;;;;;6272301;22;20064;-80
2023/07/31 08:25:30;;;;;;;7.05;3.47;;;17.00;99.90;;;;;;6272501;22;20023;-79
2023/07/31 08:27:55;;;;;;;6.18;3.40;;;17.10;99.90;;;;;;6269782;22;20023;-80
2023/07/31 08:30:22;;;;;;;5.53;3.00;;;17.10;99.90;;;;;;6251548;22;20020;-79
2023/07/31 08:32:47;;;;;;;4.68;3.25;;;17.10;99.90;;;;;;6240526;23;20438;-79
2023/07/31 08:35:13;;;;;;;6.95;3.33;;;17.10;99.90;;;;;;6214645;23;20087;-83
2023/07/31 08:37:39;;;;;;;5.03;3.28;;;17.10;99.90;;;;;;6214627;23;20090;-84
2023/07/31 08:40:06;;;;;;;5.95;3.08;;;17.10;99.90;;;;;;6214858;23;20019;-83
2023/07/31 08:42:32;;;;;;;5.00;2.80;;;17.20;99.90;;;;;;6242212;23;20027;-82
2023/07/31 08:44:59;;;;;;;3.47;2.53;;;17.20;99.90;;;;;;6240499;23;20023;-82
2023/07/31 08:47:27;;;;;;;6.53;2.78;;;17.20;99.90;;;;;;6189100;23;20035;-84
2023/07/31 08:49:54;;;;;;;9.25;3.38;;;17.20;99.90;;;;;;6214425;23;20330;-83
2023/07/31 08:52:20;;;;;;;3.80;2.67;;;17.20;99.90;;;;;;6214718;23;20020;-83
2023/07/31 08:54:45;;;;;;;4.90;2.60;;;17.30;99.90;;;;;;6214254;23;20035;-83
2023/07/31 08:57:12;;;;;;;4.45;2.38;;;17.30;99.90;;;;;;6214850;23;20452;-83
2023/07/31 08:59:39;;;;;;;4.30;2.35;;;17.30;99.90;;;;;;6214655;23;20022;-84
2023/07/31 09:02:08;;;;;;;3.25;2.10;;;17.30;99.90;;;;;;6214403;23;20020;-82
2023/07/31 09:04:34;;;;;;;4.45;2.42;;;17.40;99.90;;;;;;6214253;23;20448;-83
2023/07/31 09:07:04;;;;;;;3.55;2.00;;;17.40;99.90;;;;;;6214598;23;20446;-84
2023/07/31 09:09:31;;;;;;;4.60;2.00;;;17.50;99.90;;;;;;6214481;23;20028;-84
2023/07/31 09:11:58;;;;;;;2.70;2.10;;;17.50;99.90;;;;;;6214167;23;20032;-84
2023/07/31 09:14:25;;;;;;;2.45;1.98;;;17.50;99.90;;;;;;6213974;23;20112;-83
2023/07/31 09:17:00;;;;;;;3.40;2.03;;;17.60;99.90;;;;;;6214328;23;20535;-83
2023/07/31 09:19:27;;;;;;;2.22;1.55;;;17.60;99.90;;;;;;6214312;23;20028;-82
2023/07/31 09:21:52;;;;;;;3.25;2.03;;;17.60;99.90;;;;;;6213739;23;20020;-80
2023/07/31 09:24:30;;;;;;;2.63;1.70;;;17.60;99.90;;;;;;6213972;23;20112;-78
2023/07/31 09:26:56;;;;;;;1.95;1.45;;;17.60;99.90;;;;;;6240822;23;20043;-77
2023/07/31 09:29:22;;;;;;;3.30;1.70;;;17.60;99.90;;;;;;6219714;22;20022;-79
2023/07/31 09:31:49;;;;;;;3.17;1.52;;;17.60;99.90;;;;;;6240450;23;20115;-76
2023/07/31 09:34:14;;;;;;;2.78;1.52;;;17.60;99.90;;;;;;6213107;23;20016;-77
2023/07/31 09:36:42;;;;;;;4.07;1.67;;;17.70;99.90;;;;;;6213115;23;20078;-75
2023/07/31 09:39:12;;;;;;;1.77;1.08;;;17.70;99.90;;;;;;6213387;23;20467;-75
2023/07/31 09:41:39;;;;;;;4.25;1.50;;;17.70;99.90;;;;;;6240812;23;20082;-75
2023/07/31 09:44:05;;;;;;;2.17;1.30;;;17.80;99.90;;;;;;6240136;23;20028;-76
2023/07/31 09:46:31;;;;;;;1.50;1.30;;;17.80;99.90;;;;;;6213012;23;20024;-76
2023/07/31 09:49:15;;;;;;;1.85;1.30;;;17.90;99.90;;;;;;6213062;23;20028;-77
2023/07/31 09:51:42;;;;;;;3.13;1.50;;;17.90;99.90;;;;;;6213892;23;20608;-77
2023/07/31 09:54:16;;;;;;;1.52;1.08;;;17.90;99.90;;;;;;6213326;23;20028;-77
2023/07/31 09:56:49;;;;;;;1.98;0.93;;;17.90;99.90;;;;;;6213762;23;20024;-78
2023/07/31 09:59:17;;;;;;;1.20;1.10;;;17.80;99.90;;;;;;6213745;23;20086;-79
2023/07/31 10:01:44;;;;;;;1.38;1.10;;;17.90;99.90;;;;;;6214360;23;20016;-78
2023/07/31 10:04:11;;;;;;;1.20;1.00;;;17.90;99.90;;;;;;6241343;23;20024;-80
2023/07/31 10:06:38;;;;;;;1.40;1.30;;;17.90;99.90;;;;;;6214434;23;20340;-79
2023/07/31 10:09:10;;;;;;;1.42;1.33;;;17.90;99.90;;;;;;6214550;23;20031;-79
2023/07/31 10:11:55;;;;;;;1.70;1.05;;;17.90;99.90;;;;;;6214294;23;20185;-81
2023/07/31 10:14:23;;;;;;;1.67;1.48;;;18.00;99.90;;;;;;6213960;23;20020;-80
2023/07/31 10:16:50;;;;;;;2.45;1.35;;;18.00;99.90;;;;;;6242728;23;20095;-80
2023/07/31 10:19:17;;;;;;;2.80;1.50;;;18.00;99.90;;;;;;6214453;23;20020;-81
2023/07/31 10:21:43;;;;;;;1.40;1.30;;;18.10;99.90;;;;;;6189113;23;20020;-81
2023/07/31 10:24:09;;;;;;;2.00;1.80;;;18.10;99.90;;;;;;6214520;23;20028;-81
2023/07/31 10:26:37;;;;;;;1.80;1.70;;;18.10;99.90;;;;;;6240963;23;20391;-80
2023/07/31 10:29:04;;;;;;;3.20;2.35;;;18.20;99.90;;;;;;6213769;23;20020;-80
2023/07/31 10:31:31;;;;;;;3.10;1.80;;;18.20;99.90;;;;;;6266061;22;20024;-80
2023/07/31 10:34:02;;;;;;;2.53;2.17;;;18.20;99.90;;;;;;6271721;22;20024;-80
2023/07/31 10:36:28;;;;;;;2.73;2.30;;;18.20;99.90;;;;;;6273546;22;20026;-83
2023/07/31 10:38:56;;;;;;;2.35;2.15;;;18.20;99.90;;;;;;6273770;22;20055;-81
2023/07/31 10:41:31;;;;;;;2.28;1.75;;;18.30;99.90;;;;;;6274947;22;20030;-81
2023/07/31 10:44:01;;;;;;;1.90;1.80;;;18.20;99.90;;;;;;6271429;22;20102;-79
2023/07/31 10:46:29;;;;;;;2.45;2.10;;;18.20;99.90;;;;;;6271395;22;20023;-80
2023/07/31 10:49:02;;;;;;;2.22;2.03;;;18.30;99.90;;;;;;6273321;22;20019;-80
2023/07/31 10:51:35;;;;;;;2.25;2.05;;;18.30;99.90;;;;;;6273580;22;20446;-80
2023/07/31 10:54:17;;;;;;;3.63;1.95;;;18.40;99.90;;;;;;6273593;22;20024;-81
2023/07/31 10:56:49;;;;;;;1.60;1.50;;;18.50;99.90;;;;;;6271377;22;20027;-79
2023/07/31 10:59:17;;;;;;;1.85;1.73;;;18.50;99.90;;;;;;6271672;22;20020;-80
2023/07/31 11:02:02;;;;;;;2.00;1.83;;;18.50;99.90;;;;;;6271678;22;20024;-80
2023/07/31 11:04:30;;;;;;;2.22;2.03;;;18.60;99.90;;;;;;6271540;22;20067;-79
2023/07/31 11:07:01;;;;;;;2.20;2.00;;;18.70;99.90;;;;;;6273087;22;20030;-80
2023/07/31 11:09:32;;;;;;;2.63;2.08;;;18.70;99.90;;;;;;6271004;22;20027;-80
2023/07/31 11:11:58;;;;;;;1.80;1.70;;;18.80;99.90;;;;;;6271407;22;20023;-80
2023/07/31 11:14:24;;;;;;;2.50;2.30;;;18.80;99.90;;;;;;6271819;22;20020;-80
2023/07/31 11:16:51;;;;;;;3.80;2.08;;;18.80;99.90;;;;;;6273945;22;20016;-80
2023/07/31 11:19:24;;;;;;;2.42;2.22;;;18.80;99.90;;;;;;6273038;22;20019;-80
2023/07/31 11:21:50;;;;;;;3.17;2.40;;;18.80;99.90;;;;;;6273464;22;20023;-80
2023/07/31 11:24:16;;;;;;;2.40;2.20;;;18.80;99.90;;;;;;6271395;22;20023;-79
2023/07/31 11:26:50;;;;;;;3.15;2.53;;;18.80;99.90;;;;;;6270809;22;20447;-80
2023/07/31 11:29:16;;;;;;;3.65;1.70;;;18.80;99.90;;;;;;6270771;22;20016;-80
2023/07/31 11:31:43;;;;;;;2.83;2.42;;;18.80;99.90;;;;;;6272389;22;20024;-80
2023/07/31 11:34:08;;;;;;;2.30;2.03;;;18.80;99.90;;;;;;6245218;22;20099;-80
2023/07/31 11:36:34;;;;;;;1.88;1.75;;;18.80;99.90;;;;;;6272029;22;20024;-80
2023/07/31 11:39:08;;;;;;;2.15;1.90;;;18.80;99.90;;;;;;6245216;22;20466;-79
2023/07/31 11:41:34;;;;;;;1.60;1.50;;;18.90;99.90;;;;;;6271909;22;20031;-74
2023/07/31 11:44:00;;;;;;;1.98;1.63;;;18.80;99.90;;;;;;6272140;22;20024;-77
2023/07/31 11:46:26;;;;;;;1.98;1.83;;;18.90;99.90;;;;;;6245131;22;20722;-77
2023/07/31 11:48:52;;;;;;;1.60;1.50;;;19.00;99.90;;;;;;6272559;22;20035;-77
2023/07/31 11:51:21;;;;;;;1.80;1.67;;;19.00;99.90;;;;;;6245282;22;20649;-76
2023/07/31 11:53:53;;;;;;;2.10;1.90;;;19.00;99.90;;;;;;6244905;22;20663;-77
2023/07/31 11:56:20;;;;;;;1.70;1.60;;;19.00;99.90;;;;;;6244996;22;20355;-78
2023/07/31 11:59:03;;;;;;;1.30;1.20;;;19.10;99.90;;;;;;6244682;22;20023;-76
2023/07/31 12:01:29;;;;;;;1.25;1.15;;;19.10;99.90;;;;;;6244582;22;20023;-75
2023/07/31 12:03:56;;;;;;;1.15;0.90;;;19.10;99.90;;;;;;6244264;22;20368;-75
2023/07/31 12:06:21;;;;;;;0.50;0.50;;;19.10;99.90;;;;;;6271358;22;20023;-76
2023/07/31 12:08:48;;;;;;;1.15;0.60;;;19.20;99.90;;;;;;6244855;22;20423;-77
2023/07/31 12:11:14;;;;;;;1.48;0.70;;;19.20;99.90;;;;;;6272226;22;20075;-77
2023/07/31 12:13:41;;;;;;;0.93;0.50;;;19.20;99.90;;;;;;6272524;22;20396;-80
2023/07/31 12:16:07;;;;;;;3.03;0.60;;;19.20;99.90;;;;;;6272720;22;20015;-80
2023/07/31 12:18:37;;;;;;;2.03;1.27;;;19.20;99.90;;;;;;6245327;22;20016;-82
2023/07/31 12:21:08;;;;;;;1.13;1.00;;;19.20;99.90;;;;;;6244623;22;20766;-77
2023/07/31 12:23:36;;;;;;;1.63;1.10;;;19.20;99.90;;;;;;6244563;22;20081;-79
2023/07/31 12:26:05;;;;;;;2.10;1.10;;;19.20;99.90;;;;;;6272704;22;20024;-79
2023/07/31 12:28:34;;;;;;;1.88;1.05;;;19.20;99.90;;;;;;6244894;22;20024;-79
2023/07/31 12:31:01;;;;;;;1.45;1.33;;;19.30;99.90;;;;;;6272363;22;20035;-79
2023/07/31 12:33:35;;;;;;;1.85;1.10;;;19.30;99.90;;;;;;6245328;22;20158;-79
2023/07/31 12:36:03;;;;;;;1.52;1.00;;;19.30;99.90;;;;;;6245154;22;20032;-79
2023/07/31 12:38:29;;;;;;;1.40;1.30;;;19.30;99.90;;;;;;6272289;22;20025;-78
2023/07/31 12:40:54;;;;;;;2.70;1.20;;;19.30;99.90;;;;;;6244967;22;20022;-78
2023/07/31 12:43:20;;;;;;;1.33;1.20;;;19.30;99.90;;;;;;6245205;22;20027;-78
2023/07/31 12:45:47;;;;;;;1.83;1.25;;;19.30;99.90;;;;;;6245068;22;20024;-78